This is the latest recevied weather packets stored in our database for station/object dl1wer-13. If no packets are shown the sender has not sent any weather packets the latest 1 day(s).
| Time | Temp. | Humidity | Pressure | Rain* | Wind** | Luminosity | Snow |
|---|---|---|---|---|---|---|---|
| 1777965622 | 15.56° C | 70% | 1035.5 hPa | 0 mm | 0.89 m/s, 257° | - | - |
| 1777965021 | 15.56° C | 71% | 1035.7 hPa | 0 mm | 0.45 m/s, 277° | - | - |
| 1777964421 | 15.56° C | 73% | 1035.8 hPa | 0 mm | 0.45 m/s, 292° | - | - |
| 1777963821 | 14.44° C | 74% | 1036.1 hPa | 0 mm | 0.45 m/s, 305° | - | - |
| 1777963221 | 13.33° C | 75% | 1035.8 hPa | 0 mm | 0.45 m/s, 302° | - | - |
| 1777962622 | 13.89° C | 76% | 1036.3 hPa | 0 mm | 0.89 m/s, 333° | - | - |
| 1777962021 | 12.78° C | 80% | 1036 hPa | 0 mm | 0.89 m/s, 322° | - | - |
| 1777961421 | 11.67° C | 84% | 1035.9 hPa | 0 mm | 0.89 m/s, 323° | - | - |
| 1777960821 | 11.11° C | 84% | 1035.9 hPa | 0 mm | 0.89 m/s, 332° | - | - |
| 1777960221 | 10.56° C | 83% | 1036 hPa | 0 mm | 1.34 m/s, 342° | - | - |
| 1777959620 | 10.56° C | 82% | 1036.1 hPa | 0 mm | 0.89 m/s, 318° | - | - |
| 1777959021 | 10.56° C | 82% | 1035.9 hPa | 0 mm | 0.89 m/s, 329° | - | - |
| 1777958421 | 10.56° C | 82% | 1036 hPa | 0 mm | 0.89 m/s, 299° | - | - |
| 1777957821 | 10.56° C | 85% | 1035.8 hPa | 0 mm | 0.45 m/s, 297° | - | - |
| 1777957222 | 10.56° C | 90% | 1036 hPa | 0 mm | 0 m/s | - | - |
| 1777956621 | 9.44° C | 91% | 1035.9 hPa | 0 mm | 0 m/s | - | - |
| 1777956021 | 8.33° C | 92% | 1036.2 hPa | 0 mm | 0 m/s | - | - |
| 1777955421 | 8.33° C | 92% | 1036.1 hPa | 0 mm | 0.45 m/s, 294° | - | - |
| 1777954821 | 7.78° C | 91% | 1036.3 hPa | 0 mm | 0.89 m/s, 346° | - | - |
| 1777954221 | 7.78° C | 91% | 1036.2 hPa | 0 mm | 0.45 m/s, 298° | - | - |
| 1777953623 | 7.78° C | 91% | 1036.3 hPa | 0 mm | 0.89 m/s, 294° | - | - |
| 1777953021 | 7.78° C | 90% | 1036.4 hPa | 0 mm | 0.45 m/s, 319° | - | - |
| 1777952421 | 7.78° C | 90% | 1036.3 hPa | 0 mm | 0.89 m/s, 312° | - | - |
| 1777951821 | 7.78° C | 90% | 1036.4 hPa | 0 mm | 0.45 m/s, 277° | - | - |
| 1777951221 | 7.78° C | 90% | 1036.7 hPa | 0 mm | 0.45 m/s, 329° | - | - |
* Rain latest hour (hover to see other rain measurements)
** Current wind speed in m/s (hover to see current wind gust speed)